KMMT/MMT METAR and TAF weather

Enter ICAO airport designator
Station Type Date Time Source
KMMT METAR 2020/11/27 13:41 UTC NOAA

KMMT 271341Z AUTO 26003KT 1/2SM FG M 16/16 A3009 RMK AO2 SLP192 RVRNO $


Station Type Date Time Source
KMMT Decoded METAR 2020/11/27 13:41 UTC NOAA

McEntire Air National Guard Weather Facility Base, SC, United States (KMMT) 33-55N 080-48W
Nov 27, 2020 - 08:41 AM EST / 2020.11.27 1341 UTC
Wind: from the W (260 degrees) at 3 MPH (3 KT):0
Visibility: 1/2 mile(s):0
Weather: fog
Temperature: 60 F (16 C)
Dew Point: 60 F (16 C)
Relative Humidity: 100%
Pressure (altimeter): 30.09 in. Hg (1018 hPa)
ob: KMMT 271341Z AUTO 26003KT 1/2SM FG M 16/16 A3009 RMK AO2 SLP192 RVRNO
cycle: 13

Station Type Date Time Source
KMMT TAF 2020/11/27 08:18 UTC NOAA

TAF KMMT 270800Z 2708/2814 VRB06KT 0800 FG SCT030 QNH3001INS
TEMPO 2708/2713 1600 BR BKN030
BECMG 2713/2714 27012G18KT 9999 NSW FEW010 QNH3005INS
BECMG 2801/2802 VRB06KT 9999 FEW020 QNH3008INS
BECMG 2805/2806 VRB06KT 3200 BR FEW002 SCT250 QNH3012INS
TEMPO 2805/2812 0800 FG
BECMG 2812/2813 30012KT 9999 NSW SCT003 SCT200 QNH3007INS TX23/2718Z TN12/2711Z

Example: see airport list